Time;durP1;ratioP1;P1;durP2;ratioP2;P2;SDS_P1;SDS_P2;PMS_P1;PMS_P2;Temp;Humidity;BMP_temperature;BMP_pressure;BME280_temperature;BME280_humidity;BME280_pressure;Samples;Min_cycle;Max_cycle;Signal;HPM_P1;HPM_P2
2023/04/09 00:02:19;;;;;;;26.75;15.63;;;;;;;9.20;100.00;102482.53;5050138;28;20147;-73
2023/04/09 00:04:45;;;;;;;28.70;16.65;;;;;;;9.19;100.00;102484.34;5049037;28;20056;-73
2023/04/09 00:07:10;;;;;;;31.27;17.95;;;;;;;9.21;100.00;102486.88;5050145;28;20040;-74
2023/04/09 00:09:35;;;;;;;27.08;15.25;;;;;;;9.16;100.00;102478.47;5049971;28;20040;-74
2023/04/09 00:12:02;;;;;;;28.23;15.57;;;;;;;9.17;100.00;102474.84;5048643;28;20115;-74
2023/04/09 00:14:28;;;;;;;29.00;16.50;;;;;;;9.15;100.00;102482.13;5049943;28;20064;-74
2023/04/09 00:16:53;;;;;;;32.70;18.35;;;;;;;9.12;100.00;102477.13;5048862;28;20043;-74
2023/04/09 00:19:19;;;;;;;28.05;17.05;;;;;;;9.08;100.00;102465.06;5048817;28;20388;-74
2023/04/09 00:21:45;;;;;;;28.77;17.55;;;;;;;9.11;100.00;102476.25;5049838;28;20104;-74
2023/04/09 00:24:10;;;;;;;28.52;18.60;;;;;;;9.12;100.00;102466.47;5050172;28;20375;-74
2023/04/09 00:26:35;;;;;;;30.63;18.30;;;;;;;9.12;100.00;102477.13;5050032;28;20447;-74
2023/04/09 00:29:01;;;;;;;30.90;18.63;;;;;;;9.10;100.00;102471.94;5049829;28;20091;-74
2023/04/09 00:31:26;;;;;;;30.25;17.13;;;;;;;9.07;100.00;102466.91;5048460;28;20054;-74
2023/04/09 00:33:51;;;;;;;27.58;16.38;;;;;;;9.10;100.00;102469.25;5049849;28;20434;-74
2023/04/09 00:36:17;;;;;;;29.83;17.50;;;;;;;9.09;100.00;102464.06;5049610;28;20037;-74
2023/04/09 00:38:42;;;;;;;31.92;15.80;;;;;;;9.08;100.00;102468.56;5049512;28;20116;-74
2023/04/09 00:41:07;;;;;;;29.80;17.00;;;;;;;9.08;100.00;102455.25;5049659;28;20049;-74
2023/04/09 00:43:33;;;;;;;31.05;17.15;;;;;;;9.02;100.00;102455.84;5049594;28;20064;-74
2023/04/09 00:45:59;;;;;;;31.48;17.88;;;;;;;9.05;100.00;102462.72;5049524;28;20060;-74
2023/04/09 00:48:25;;;;;;;29.77;17.77;;;;;;;9.03;100.00;102462.84;5049452;28;20075;-74
2023/04/09 00:50:51;;;;;;;30.23;17.80;;;;;;;9.02;100.00;102461.19;5049417;28;20025;-74
2023/04/09 00:53:17;;;;;;;32.25;18.15;;;;;;;9.00;100.00;102461.31;5049605;28;20151;-74
2023/04/09 00:55:42;;;;;;;30.00;17.42;;;;;;;9.00;100.00;102452.50;5049263;28;20039;-74
2023/04/09 00:58:07;;;;;;;30.98;17.77;;;;;;;9.00;100.00;102455.16;5031070;28;20407;-74
2023/04/09 01:00:33;;;;;;;30.73;19.35;;;;;;;8.99;100.00;102453.50;5049207;28;20031;-74
2023/04/09 01:02:59;;;;;;;30.45;16.65;;;;;;;8.97;100.00;102450.97;5049040;28;20087;-74
2023/04/09 01:05:37;;;;;;;33.17;18.95;;;;;;;8.95;100.00;102444.13;5049563;28;20439;-74
2023/04/09 01:08:20;;;;;;;30.00;16.70;;;;;;;8.96;100.00;102451.09;5049176;28;20021;-74
2023/04/09 01:11:06;;;;;;;31.08;18.02;;;;;;;8.89;100.00;102442.03;5049275;28;20392;-74
2023/04/09 01:13:42;;;;;;;31.10;18.92;;;;;;;8.96;100.00;102456.41;5049023;28;20142;-74
2023/04/09 01:16:11;;;;;;;32.30;17.50;;;;;;;8.91;100.00;102448.06;5049324;28;20033;-74
2023/04/09 01:18:51;;;;;;;31.42;18.40;;;;;;;8.92;100.00;102447.91;5048885;28;20032;-74
2023/04/09 01:21:25;;;;;;;30.60;17.55;;;;;;;8.91;100.00;102442.75;5049151;28;20068;-74
2023/04/09 01:24:12;;;;;;;31.83;17.92;;;;;;;8.90;100.00;102441.06;5049100;28;20442;-74
2023/04/09 01:26:54;;;;;;;31.40;17.85;;;;;;;8.82;100.00;102439.13;5048830;28;20098;-74
2023/04/09 01:29:21;;;;;;;31.77;17.73;;;;;;;8.86;100.00;102445.84;5049054;28;20025;-74
2023/04/09 01:31:48;;;;;;;31.60;18.65;;;;;;;8.85;100.00;102445.97;5048771;28;20047;-74
2023/04/09 01:34:15;;;;;;;31.23;17.17;;;;;;;8.86;100.00;102445.84;5048987;28;20120;-74
2023/04/09 01:36:41;;;;;;;31.27;18.63;;;;;;;8.84;100.00;102437.16;5048949;28;20071;-74
2023/04/09 01:39:07;;;;;;;34.65;20.05;;;;;;;8.85;100.00;102438.81;5047723;28;20036;-74
2023/04/09 01:41:34;;;;;;;34.10;20.92;;;;;;;8.85;100.00;102433.50;5048868;28;20078;-74
2023/04/09 01:44:02;;;;;;;33.63;20.08;;;;;;;8.82;100.00;102439.13;5048973;28;20036;-74
2023/04/09 01:46:28;;;;;;;32.58;19.85;;;;;;;8.83;100.00;102435.50;5052303;28;20021;-74
2023/04/09 01:48:55;;;;;;;33.70;19.00;;;;;;;8.85;100.00;102435.31;5052784;28;20663;-74
2023/04/09 01:51:20;;;;;;;34.80;20.02;;;;;;;8.85;100.00;102440.66;5052830;28;20035;-74
2023/04/09 01:53:47;;;;;;;32.60;19.63;;;;;;;8.80;100.00;102427.78;5052789;28;20383;-74
2023/04/09 01:56:12;;;;;;;30.77;18.85;;;;;;;8.75;100.00;102422.91;5052611;28;20380;-74
2023/04/09 01:58:37;;;;;;;30.90;19.15;;;;;;;8.83;100.00;102429.31;5052485;28;20025;-74
2023/04/09 02:01:13;;;;;;;31.27;19.83;;;;;;;8.82;100.00;102432.97;5052676;28;20438;-74
2023/04/09 02:04:03;;;;;;;34.40;20.02;;;;;;;8.82;100.00;102436.47;5052483;28;20534;-74
2023/04/09 02:06:49;;;;;;;34.15;20.52;;;;;;;8.80;100.00;102430.44;5052551;28;20059;-74
2023/04/09 02:09:17;;;;;;;37.67;19.90;;;;;;;8.79;100.00;102431.44;5052343;28;20025;-74
2023/04/09 02:11:45;;;;;;;38.00;18.85;;;;;;;8.81;100.00;102434.78;5052398;28;20112;-74
2023/04/09 02:14:11;;;;;;;43.15;21.48;;;;;;;8.79;100.00;102434.09;5052349;28;20120;-74
2023/04/09 02:16:38;;;;;;;35.13;20.63;;;;;;;8.76;100.00;102432.56;5052253;28;20037;-74
2023/04/09 02:19:04;;;;;;;32.92;18.55;;;;;;;8.76;100.00;102431.72;5052300;28;20036;-74
2023/04/09 02:21:30;;;;;;;38.00;21.20;;;;;;;8.78;100.00;102440.41;5052140;28;20074;-74
2023/04/09 02:23:55;;;;;;;35.83;20.13;;;;;;;8.75;100.00;102435.34;5052098;28;20067;-74
2023/04/09 02:26:22;;;;;;;36.70;20.70;;;;;;;8.72;100.00;102430.34;5052196;28;20056;-74
2023/04/09 02:28:48;;;;;;;37.10;21.95;;;;;;;8.75;100.00;102435.34;5052148;28;20391;-74
2023/04/09 02:31:13;;;;;;;37.83;24.35;;;;;;;8.74;100.00;102434.53;5052138;28;20116;-74
2023/04/09 02:33:39;;;;;;;38.78;21.10;;;;;;;8.66;100.00;102415.78;5050602;28;20040;-74
2023/04/09 02:36:05;;;;;;;36.05;20.40;;;;;;;8.73;100.00;102429.38;5051927;28;20061;-74
2023/04/09 02:38:30;;;;;;;35.42;20.08;;;;;;;8.71;100.00;102423.34;5051840;28;20039;-74
2023/04/09 02:40:56;;;;;;;35.50;19.08;;;;;;;8.71;100.00;102426.84;5051941;28;20078;-75
2023/04/09 02:43:21;;;;;;;37.60;22.80;;;;;;;8.69;100.00;102414.66;5051792;28;20445;-74
2023/04/09 02:45:47;;;;;;;37.03;19.83;;;;;;;8.70;100.00;102416.38;5051907;28;20081;-73
2023/04/09 02:48:12;;;;;;;37.95;22.05;;;;;;;8.69;100.00;102417.31;5050246;28;20044;-73
2023/04/09 02:50:38;;;;;;;37.55;21.20;;;;;;;8.65;100.00;102410.63;5051746;28;20432;-73
2023/04/09 02:53:03;;;;;;;40.33;22.17;;;;;;;8.70;100.00;102419.84;5050217;28;20044;-73
2023/04/09 02:55:28;;;;;;;36.90;20.67;;;;;;;8.70;100.00;102422.50;5051406;28;20061;-73
2023/04/09 02:57:54;;;;;;;44.72;22.27;;;;;;;8.66;100.00;102418.47;5049162;28;20033;-73
2023/04/09 03:00:19;;;;;;;35.97;19.98;;;;;;;8.66;100.00;102409.66;5050123;28;20060;-73
2023/04/09 03:02:45;;;;;;;36.92;21.52;;;;;;;8.61;100.00;102406.59;5051113;28;20077;-73
2023/04/09 03:05:10;;;;;;;38.63;21.52;;;;;;;8.65;100.00;102408.81;5051357;28;20500;-73
2023/04/09 03:07:35;;;;;;;34.72;20.90;;;;;;;8.68;100.00;102410.34;5051135;28;20040;-73
2023/04/09 03:10:01;;;;;;;40.30;22.58;;;;;;;8.61;100.00;102409.25;5033390;28;20130;-73
2023/04/09 03:12:26;;;;;;;41.53;20.98;;;;;;;8.64;100.00;102414.25;5051302;28;20032;-73
2023/04/09 03:14:52;;;;;;;39.42;21.55;;;;;;;8.64;100.00;102412.44;5049665;28;20539;-73
2023/04/09 03:17:17;;;;;;;38.03;21.48;;;;;;;8.61;100.00;102409.25;5051168;28;20040;-73
2023/04/09 03:19:42;;;;;;;39.17;20.80;;;;;;;8.60;100.00;102405.75;5050983;28;20036;-73
2023/04/09 03:22:08;;;;;;;40.17;21.35;;;;;;;8.61;100.00;102404.75;5049639;28;20025;-73
2023/04/09 03:24:33;;;;;;;41.22;24.02;;;;;;;8.61;100.00;102414.56;5050890;28;20031;-73
2023/04/09 03:26:59;;;;;;;37.53;21.52;;;;;;;8.60;100.00;102410.25;5049825;28;20384;-73
2023/04/09 03:29:24;;;;;;;40.80;22.83;;;;;;;8.56;100.00;102402.53;5049583;28;20037;-73
2023/04/09 03:31:50;;;;;;;38.95;22.33;;;;;;;8.51;100.00;102398.63;5049701;28;20383;-73
2023/04/09 03:34:15;;;;;;;39.72;23.63;;;;;;;8.53;100.00;102399.31;5051071;28;20489;-73
2023/04/09 03:36:41;;;;;;;37.17;20.00;;;;;;;8.50;100.00;102389.81;5032855;28;20039;-73
2023/04/09 03:39:06;;;;;;;37.92;20.88;;;;;;;8.51;100.00;102398.63;5049523;28;20369;-73
2023/04/09 03:41:31;;;;;;;36.13;21.27;;;;;;;8.49;100.00;102393.47;5049458;28;20043;-73
2023/04/09 03:43:57;;;;;;;35.88;20.35;;;;;;;8.45;100.00;102386.75;5049395;28;20028;-73
2023/04/09 03:46:22;;;;;;;35.50;19.55;;;;;;;8.44;100.00;102387.75;5050583;28;20028;-73
2023/04/09 03:48:48;;;;;;;34.30;20.17;;;;;;;8.39;100.00;102386.47;5050559;28;20373;-73
2023/04/09 03:51:17;;;;;;;37.00;21.00;;;;;;;8.38;100.00;102390.09;5050494;28;20472;-73
2023/04/09 03:53:43;;;;;;;34.28;19.23;;;;;;;8.35;100.00;102381.41;5032349;28;20480;-73
2023/04/09 03:56:09;;;;;;;35.45;20.27;;;;;;;8.31;100.00;102384.53;5050460;28;20032;-73
2023/04/09 03:58:34;;;;;;;35.03;19.73;;;;;;;8.32;100.00;102381.72;5049067;28;20043;-73
2023/04/09 04:01:00;;;;;;;42.65;19.65;;;;;;;8.29;100.00;102387.31;5050327;28;20369;-73
2023/04/09 04:03:26;;;;;;;37.42;20.33;;;;;;;8.27;100.00;102386.63;5050041;28;20140;-73
2023/04/09 04:05:52;;;;;;;37.80;20.30;;;;;;;8.25;100.00;102385.09;5050215;28;20029;-73
2023/04/09 04:08:17;;;;;;;31.05;17.15;;;;;;;8.24;100.00;102384.25;5049878;28;20090;-73
2023/04/09 04:10:42;;;;;;;35.22;18.73;;;;;;;8.20;100.00;102385.53;5049965;28;20037;-73
2023/04/09 04:13:08;;;;;;;34.42;18.85;;;;;;;8.14;100.00;102388.75;5050083;28;20056;-73
2023/04/09 04:15:40;;;;;;;31.45;16.30;;;;;;;8.11;100.00;102389.03;5049834;28;20149;-73
2023/04/09 04:18:05;;;;;;;32.53;18.52;;;;;;;7.94;100.00;102371.16;5048753;28;20033;-73
2023/04/09 04:20:32;;;;;;;37.17;19.52;;;;;;;7.99;100.00;102392.81;5049850;28;20037;-73
2023/04/09 04:22:57;;;;;;;32.83;19.48;;;;;;;7.93;100.00;102393.41;5048612;28;20021;-73
2023/04/09 04:25:23;;;;;;;34.08;17.60;;;;;;;7.83;100.00;102386.28;5049779;28;20024;-73
2023/04/09 04:27:48;;;;;;;33.40;17.40;;;;;;;7.72;100.00;102383.75;5048487;28;20033;-73
2023/04/09 04:30:14;;;;;;;34.88;20.05;;;;;;;7.69;100.00;102392.84;5049828;28;20032;-73
2023/04/09 04:32:39;;;;;;;33.63;16.65;;;;;;;7.51;100.00;102377.75;5049679;28;20025;-73
2023/04/09 04:35:05;;;;;;;33.05;16.92;;;;;;;7.49;100.00;102390.31;5049616;28;20067;-73
2023/04/09 04:37:30;;;;;;;31.42;17.13;;;;;;;7.42;100.00;102398.00;5049586;28;20495;-73
2023/04/09 04:39:55;;;;;;;31.67;17.48;;;;;;;7.34;100.00;102393.38;5031819;28;20029;-73
2023/04/09 04:42:22;;;;;;;30.08;17.13;;;;;;;7.28;100.00;102393.06;5048095;28;20032;-73
2023/04/09 04:44:47;;;;;;;35.53;18.17;;;;;;;7.20;100.00;102391.09;5049670;28;20067;-73
2023/04/09 04:47:12;;;;;;;33.10;18.80;;;;;;;7.10;100.00;102387.59;5047754;28;20115;-73
2023/04/09 04:49:38;;;;;;;29.98;15.60;;;;;;;7.06;100.00;102391.50;5048272;28;20068;-73
2023/04/09 04:52:04;;;;;;;31.33;17.10;;;;;;;6.94;100.00;102383.66;5048052;28;20028;-73
2023/04/09 04:54:30;;;;;;;32.83;17.02;;;;;;;6.90;100.00;102389.38;5049548;28;20029;-73
2023/04/09 04:56:55;;;;;;;33.47;18.08;;;;;;;6.83;100.00;102397.00;5049280;28;20021;-73
2023/04/09 04:59:21;;;;;;;35.45;17.83;;;;;;;6.68;100.00;102382.41;5049281;28;20029;-73
2023/04/09 05:01:46;;;;;;;32.50;17.70;;;;;;;6.74;100.00;102397.81;5049307;28;20029;-73
2023/04/09 05:04:11;;;;;;;29.40;16.90;;;;;;;6.70;100.00;102394.56;5049506;28;20053;-73
2023/04/09 05:06:37;;;;;;;33.75;17.50;;;;;;;6.64;100.00;102389.81;5049146;28;20480;-73
2023/04/09 05:09:02;;;;;;;32.40;17.60;;;;;;;6.65;100.00;102398.59;5048124;28;20500;-73
2023/04/09 05:11:27;;;;;;;36.38;20.00;;;;;;;6.54;100.00;102395.06;5049253;28;20102;-73
2023/04/09 05:13:53;;;;;;;36.78;18.17;;;;;;;6.54;100.00;102405.66;5047748;28;20025;-73
2023/04/09 05:16:19;;;;;;;34.90;17.85;;;;;;;6.52;100.00;102404.13;5049128;28;20076;-73
2023/04/09 05:18:45;;;;;;;33.63;18.30;;;;;;;6.51;100.00;102405.94;5047835;28;20020;-73
2023/04/09 05:21:11;;;;;;;34.60;18.38;;;;;;;6.48;100.00;102400.06;5047104;28;20130;-73
2023/04/09 05:23:36;;;;;;;35.38;18.25;;;;;;;6.47;100.00;102409.84;5049251;28;20028;-73
2023/04/09 05:26:01;;;;;;;36.75;20.02;;;;;;;6.37;100.00;102393.03;5048753;28;20025;-73
2023/04/09 05:28:27;;;;;;;32.13;15.85;;;;;;;6.38;100.00;102391.22;5049043;28;20023;-73
2023/04/09 05:30:52;;;;;;;33.33;17.25;;;;;;;6.38;100.00;102388.56;5048830;28;20036;-73
2023/04/09 05:33:17;;;;;;;33.60;18.08;;;;;;;6.41;100.00;102399.75;5047817;28;20052;-73
2023/04/09 05:35:43;;;;;;;35.42;17.60;;;;;;;6.40;100.00;102399.88;5047555;28;20368;-73
2023/04/09 05:38:08;;;;;;;33.72;17.25;;;;;;;6.43;100.00;102402.28;5030905;28;20041;-73
2023/04/09 05:40:34;;;;;;;32.20;18.23;;;;;;;6.45;100.00;102401.16;5049096;28;20379;-73
2023/04/09 05:43:00;;;;;;;33.45;18.33;;;;;;;6.45;100.00;102401.16;5048856;28;20072;-73
2023/04/09 05:45:27;;;;;;;32.10;18.70;;;;;;;6.49;100.00;102405.22;5047504;28;20032;-73
2023/04/09 05:47:53;;;;;;;31.27;17.15;;;;;;;6.51;100.00;102405.94;5048807;28;20039;-73
2023/04/09 05:50:18;;;;;;;34.78;18.00;;;;;;;6.54;100.00;102397.72;5048847;28;20472;-73
2023/04/09 05:52:44;;;;;;;35.22;18.48;;;;;;;6.59;100.00;102402.63;5048900;28;20988;-73
2023/04/09 05:55:09;;;;;;;34.85;18.02;;;;;;;6.65;100.00;102398.59;5048126;28;20041;-73
2023/04/09 05:57:35;;;;;;;34.50;18.60;;;;;;;6.71;100.00;102398.94;5048597;28;20112;-73
2023/04/09 06:00:00;;;;;;;35.47;17.58;;;;;;;6.79;100.00;102390.31;5048741;28;20025;-73
2023/04/09 06:02:27;;;;;;;35.35;17.83;;;;;;;6.87;100.00;102395.78;5030556;28;20108;-73
2023/04/09 06:04:52;;;;;;;32.85;16.70;;;;;;;6.99;100.00;102386.72;5030958;28;20021;-73
2023/04/09 06:07:18;;;;;;;34.53;20.27;;;;;;;7.08;100.00;102397.53;5035915;28;20090;-73
2023/04/09 06:09:43;;;;;;;35.22;18.75;;;;;;;7.06;100.00;102397.63;5047512;28;20039;-73
2023/04/09 06:12:09;;;;;;;34.88;16.88;;;;;;;7.14;100.00;102399.63;5048563;28;20104;-72
2023/04/09 06:14:34;;;;;;;37.00;20.63;;;;;;;7.14;100.00;102389.84;5048349;28;20037;-73
2023/04/09 06:17:00;;;;;;;32.55;18.83;;;;;;;7.23;100.00;102404.97;5048469;28;20071;-73
2023/04/09 06:19:25;;;;;;;37.45;19.85;;;;;;;7.25;100.00;102391.53;5048503;28;20330;-73
2023/04/09 06:21:51;;;;;;;33.13;18.60;;;;;;;7.39;100.00;102398.28;5048783;28;20036;-74
2023/04/09 06:24:16;;;;;;;32.67;19.40;;;;;;;7.61;100.00;102405.97;5047188;28;20037;-74
2023/04/09 06:26:41;;;;;;;33.83;17.55;;;;;;;7.65;100.00;102409.19;5048449;28;20029;-74
2023/04/09 06:29:07;;;;;;;33.70;18.65;;;;;;;7.79;100.00;102411.44;5048535;28;20124;-74
2023/04/09 06:31:32;;;;;;;33.65;19.33;;;;;;;7.87;100.00;102421.38;5048888;28;20041;-74
2023/04/09 06:33:58;;;;;;;33.85;18.80;;;;;;;7.84;100.00;102422.50;5052086;28;20065;-75
2023/04/09 06:36:23;;;;;;;39.67;21.25;;;;;;;7.79;100.00;102422.06;5052094;28;20427;-74
2023/04/09 06:38:49;;;;;;;34.85;19.15;;;;;;;7.90;100.00;102423.75;5051720;28;20043;-74
2023/04/09 06:41:14;;;;;;;33.97;20.75;;;;;;;7.89;100.00;102428.22;5051811;28;20057;-75
2023/04/09 06:43:39;;;;;;;38.40;19.25;;;;;;;7.87;100.00;102427.50;5051718;28;20448;-74
2023/04/09 06:46:05;;;;;;;33.75;19.83;;;;;;;7.81;100.00;102427.25;5051792;28;20437;-74
2023/04/09 06:48:31;;;;;;;34.75;20.38;;;;;;;7.72;100.00;102422.75;5051670;28;20489;-75
2023/04/09 06:50:56;;;;;;;40.53;23.20;;;;;;;7.72;100.00;102420.09;5051618;28;20032;-74
2023/04/09 06:53:21;;;;;;;34.53;19.90;;;;;;;7.76;100.00;102414.38;5050256;28;20036;-74
2023/04/09 06:55:47;;;;;;;35.28;19.65;;;;;;;7.92;100.00;102421.78;5051435;28;20039;-74
2023/04/09 06:58:12;;;;;;;34.50;20.35;;;;;;;8.04;100.00;102423.34;5051586;28;20029;-74
2023/04/09 07:00:38;;;;;;;34.65;18.80;;;;;;;7.99;100.00;102430.03;5051520;28;20025;-75
2023/04/09 07:03:04;;;;;;;34.03;18.55;;;;;;;7.99;100.00;102425.56;5051383;28;20053;-74
2023/04/09 07:05:30;;;;;;;32.60;18.25;;;;;;;8.00;100.00;102426.41;5051518;28;20033;-74
2023/04/09 07:07:55;;;;;;;36.03;21.33;;;;;;;8.12;100.00;102434.09;5051426;28;20083;-74
2023/04/09 07:10:21;;;;;;;35.38;19.85;;;;;;;8.21;100.00;102436.88;5051610;28;20028;-74
2023/04/09 07:12:46;;;;;;;37.08;20.33;;;;;;;8.29;100.00;102431.69;5049814;28;20037;-74
2023/04/09 07:15:12;;;;;;;34.63;20.77;;;;;;;8.32;100.00;102429.56;5049953;28;20438;-74
2023/04/09 07:17:37;;;;;;;35.72;21.15;;;;;;;8.35;100.00;102417.81;5051186;28;20587;-74
2023/04/09 07:20:03;;;;;;;32.85;19.45;;;;;;;8.48;100.00;102431.66;5051247;28;20590;-75
2023/04/09 07:22:29;;;;;;;34.78;22.15;;;;;;;8.50;100.00;102436.84;5051128;28;20052;-74
2023/04/09 07:24:54;;;;;;;36.25;21.23;;;;;;;8.56;100.00;102438.91;5050637;28;20594;-74
2023/04/09 07:27:25;;;;;;;39.15;21.55;;;;;;;8.61;100.00;102438.50;5049714;28;20029;-74
2023/04/09 07:29:52;;;;;;;33.70;20.50;;;;;;;8.65;100.00;102443.38;5050841;28;20124;-75
2023/04/09 07:32:18;;;;;;;39.13;20.40;;;;;;;8.81;100.00;102444.59;5050834;28;20086;-75
2023/04/09 07:34:43;;;;;;;32.78;18.85;;;;;;;8.89;100.00;102439.38;5050810;28;20439;-75
2023/04/09 07:37:08;;;;;;;34.58;21.50;;;;;;;9.07;100.00;102437.63;5051035;28;20068;-75
2023/04/09 07:39:34;;;;;;;35.00;20.48;;;;;;;9.37;100.00;102432.97;5050695;28;20033;-77
2023/04/09 07:42:03;;;;;;;39.85;23.15;;;;;;;9.57;100.00;102425.69;5045380;28;20052;-78
2023/04/09 07:44:32;;;;;;;33.65;20.30;;;;;;;9.60;99.75;102434.22;5033259;28;20111;-77
2023/04/09 07:46:57;;;;;;;36.60;22.15;;;;;;;9.52;99.78;102442.13;5038974;28;20373;-79
2023/04/09 07:49:23;;;;;;;37.10;22.55;;;;;;;9.46;100.00;102424.09;5050802;28;20036;-83
2023/04/09 07:51:48;;;;;;;36.13;21.55;;;;;;;9.52;100.00;102431.47;5050940;28;20462;-76
2023/04/09 07:54:13;;;;;;;34.85;20.00;;;;;;;9.62;100.00;102437.56;5049392;28;20040;-76
2023/04/09 07:56:39;;;;;;;37.28;20.85;;;;;;;9.71;100.00;102435.81;5050539;28;20052;-76
2023/04/09 07:59:04;;;;;;;32.72;20.70;;;;;;;9.84;100.00;102424.78;5050720;28;20068;-76
2023/04/09 08:01:31;;;;;;;34.42;21.85;;;;;;;10.00;100.00;102429.41;5050276;28;20051;-76
2023/04/09 08:03:56;;;;;;;32.97;22.00;;;;;;;10.11;100.00;102431.81;5050664;28;20153;-76
2023/04/09 08:06:21;;;;;;;32.45;21.08;;;;;;;10.26;99.23;102429.44;5050326;28;20037;-77
2023/04/09 08:08:47;;;;;;;32.35;20.40;;;;;;;10.41;99.54;102427.94;5050250;28;20048;-77
2023/04/09 08:11:12;;;;;;;39.13;24.17;;;;;;;10.53;98.85;102431.16;5050343;28;20035;-77
2023/04/09 08:13:37;;;;;;;41.28;24.67;;;;;;;10.82;100.00;102433.50;5050376;28;20029;-76
2023/04/09 08:16:03;;;;;;;36.83;23.50;;;;;;;11.37;96.16;102430.38;5050116;28;20021;-76
2023/04/09 08:18:29;;;;;;;39.72;22.00;;;;;;;11.69;94.10;102433.28;5050264;28;20091;-76
2023/04/09 08:20:55;;;;;;;34.63;22.90;;;;;;;11.99;94.34;102424.63;5050490;28;20033;-76
2023/04/09 08:23:20;;;;;;;33.47;21.83;;;;;;;11.93;89.55;102425.31;5048771;28;20028;-77
2023/04/09 08:25:46;;;;;;;33.38;23.73;;;;;;;11.72;92.25;102427.59;5050239;28;20106;-76
2023/04/09 08:28:11;;;;;;;33.53;21.42;;;;;;;12.59;91.15;102427.91;5048430;28;20163;-76
2023/04/09 08:30:37;;;;;;;35.20;21.63;;;;;;;14.10;82.66;102419.56;5049907;28;20037;-76
2023/04/09 08:33:02;;;;;;;34.00;23.92;;;;;;;15.08;78.59;102432.78;5049979;28;20025;-76
2023/04/09 08:35:31;;;;;;;33.50;21.30;;;;;;;15.83;73.86;102424.53;5050010;28;20017;-74
2023/04/09 08:37:57;;;;;;;33.13;21.98;;;;;;;16.25;74.36;102429.03;5049727;28;20051;-74
2023/04/09 08:40:22;;;;;;;34.28;22.25;;;;;;;15.90;72.97;102422.72;5049830;28;20033;-74
2023/04/09 08:42:54;;;;;;;36.00;23.00;;;;;;;15.20;75.71;102429.63;5049718;28;20040;-74
2023/04/09 08:45:19;;;;;;;35.47;23.02;;;;;;;14.64;79.29;102427.44;5049798;28;20031;-74
2023/04/09 08:47:48;;;;;;;35.20;22.67;;;;;;;14.07;79.47;102395.75;5049695;28;20404;-74
2023/04/09 08:50:14;;;;;;;34.25;24.60;;;;;;;13.89;81.75;102404.16;5048174;28;20017;-74
2023/04/09 08:52:39;;;;;;;33.42;23.35;;;;;;;13.58;81.33;102405.03;5049566;28;20491;-74
2023/04/09 08:55:06;;;;;;;34.15;23.55;;;;;;;13.31;81.96;102411.75;5048449;28;20029;-74
2023/04/09 08:57:37;;;;;;;34.28;23.08;;;;;;;13.22;86.27;102410.91;5047909;28;20420;-74
2023/04/09 09:00:03;;;;;;;34.13;22.60;;;;;;;13.10;86.48;102398.94;5047949;28;20025;-74
2023/04/09 09:02:30;;;;;;;33.70;23.25;;;;;;;13.09;87.19;102406.13;5049134;28;20033;-74
2023/04/09 09:04:59;;;;;;;31.65;23.35;;;;;;;13.03;87.49;102406.00;5049233;28;20448;-74
2023/04/09 09:07:28;;;;;;;32.92;21.65;;;;;;;12.88;85.81;102406.72;5049316;28;20040;-72
2023/04/09 09:09:58;;;;;;;37.03;25.27;;;;;;;12.80;85.60;102405.94;5049482;28;20071;-74
2023/04/09 09:12:34;;;;;;;34.47;22.70;;;;;;;12.84;87.94;102415.31;5048752;28;20431;-73
2023/04/09 09:14:59;;;;;;;35.28;22.88;;;;;;;12.65;85.85;102406.66;5047374;28;20419;-73
2023/04/09 09:17:25;;;;;;;35.00;21.83;;;;;;;12.78;89.19;102413.28;5047789;28;20033;-72
2023/04/09 09:19:50;;;;;;;36.30;23.10;;;;;;;12.71;86.72;102394.44;5048838;28;20041;-72
2023/04/09 09:22:16;;;;;;;35.05;22.33;;;;;;;12.82;88.10;102414.63;5049281;28;20029;-72
2023/04/09 09:24:47;;;;;;;35.28;22.65;;;;;;;12.86;88.03;102405.22;5047133;28;20037;-72
2023/04/09 09:27:30;;;;;;;34.28;22.75;;;;;;;12.80;85.66;102398.72;5049353;28;20051;-72
2023/04/09 09:29:56;;;;;;;31.85;22.52;;;;;;;12.85;85.43;102404.41;5049205;28;20021;-73
2023/04/09 09:32:22;;;;;;;32.08;19.58;;;;;;;12.82;83.66;102402.06;5049425;28;20021;-73
2023/04/09 09:35:06;;;;;;;34.78;21.30;;;;;;;12.89;85.60;102395.03;5048151;28;20033;-73
2023/04/09 09:37:32;;;;;;;31.13;19.67;;;;;;;13.04;85.22;102394.28;5049024;28;20488;-73
2023/04/09 09:39:59;;;;;;;32.28;20.95;;;;;;;13.31;87.71;102395.69;5049069;28;20044;-73
2023/04/09 09:42:26;;;;;;;29.63;18.73;;;;;;;13.35;82.80;102386.25;5048997;28;20028;-74
2023/04/09 09:44:53;;;;;;;30.77;21.23;;;;;;;13.44;85.06;102395.94;5048094;28;20464;-74
2023/04/09 09:47:21;;;;;;;30.73;19.58;;;;;;;13.34;82.38;102389.97;5046437;28;20576;-74
2023/04/09 09:49:48;;;;;;;30.35;19.02;;;;;;;13.14;81.71;102395.72;5047346;28;20056;-74
2023/04/09 09:52:14;;;;;;;29.42;19.83;;;;;;;13.10;83.87;102388.25;5047778;28;20491;-74
2023/04/09 09:54:41;;;;;;;30.23;21.13;;;;;;;13.26;85.14;102380.13;5048046;28;20098;-73
2023/04/09 09:57:13;;;;;;;28.70;19.30;;;;;;;13.23;83.04;102385.81;5048603;28;20025;-79
2023/04/09 10:00:00;;;;;;;26.85;17.10;;;;;;;13.21;82.39;102373.59;5049551;28;20052;-78
2023/04/09 10:02:29;;;;;;;31.52;21.00;;;;;;;13.31;82.66;102369.72;5049874;28;20032;-81
2023/04/09 10:04:59;;;;;;;28.35;17.58;;;;;;;13.45;82.39;102364.59;5047888;28;20045;-78
2023/04/09 10:07:25;;;;;;;28.38;18.15;;;;;;;13.45;84.36;102359.25;5053785;28;20041;-79
2023/04/09 10:09:55;;;;;;;30.63;18.80;;;;;;;13.68;82.98;102367.28;5053588;28;20396;-78
2023/04/09 10:12:24;;;;;;;29.30;17.35;;;;;;;13.77;82.10;102366.19;5052537;28;20116;-78
2023/04/09 10:14:55;;;;;;;26.05;17.05;;;;;;;13.72;80.74;102353.31;5051364;28;20059;-77
2023/04/09 10:17:20;;;;;;;26.20;15.50;;;;;;;13.57;76.88;102361.31;5052544;28;20025;-78
2023/04/09 10:20:15;;;;;;;24.48;14.57;;;;;;;13.72;79.67;102353.31;5051318;28;20087;-78
2023/04/09 10:22:43;;;;;;;23.90;13.45;;;;;;;13.98;71.80;102352.91;5051562;28;20442;-78
2023/04/09 10:25:09;;;;;;;21.38;11.90;;;;;;;14.21;74.70;102360.09;5052253;28;20033;-78
2023/04/09 10:27:35;;;;;;;21.30;11.27;;;;;;;14.20;72.63;102347.66;5050065;28;20047;-78
2023/04/09 10:30:00;;;;;;;21.40;12.90;;;;;;;14.06;71.20;102346.63;5036317;28;20028;-76
2023/04/09 10:32:26;;;;;;;22.48;12.07;;;;;;;14.00;73.92;102350.06;5037917;28;20388;-78
2023/04/09 10:34:56;;;;;;;24.25;13.73;;;;;;;14.08;67.27;102355.34;5037560;28;20028;-75
2023/04/09 10:37:26;;;;;;;24.35;13.63;;;;;;;14.11;68.00;102343.41;5037799;28;20032;-76
2023/04/09 10:39:52;;;;;;;22.80;13.70;;;;;;;14.31;68.07;102347.22;5052261;28;20492;-76
2023/04/09 10:42:44;;;;;;;23.98;13.38;;;;;;;14.52;67.32;102342.97;5051521;28;20127;-77
2023/04/09 10:45:12;;;;;;;20.70;11.32;;;;;;;14.64;67.38;102336.94;5036582;28;20041;-76
2023/04/09 10:47:40;;;;;;;20.73;12.00;;;;;;;14.75;65.22;102332.97;5038067;28;20025;-75
2023/04/09 10:50:17;;;;;;;21.40;12.35;;;;;;;15.02;65.42;102333.28;5037283;28;20044;-76
2023/04/09 10:52:43;;;;;;;19.88;11.05;;;;;;;14.80;61.70;102327.88;5038768;28;20119;-81
2023/04/09 10:55:28;;;;;;;19.55;10.02;;;;;;;14.67;65.03;102335.75;5038175;28;20452;-72
2023/04/09 10:57:53;;;;;;;19.40;11.82;;;;;;;14.51;61.18;102326.00;5037722;28;20039;-79
2023/04/09 11:00:19;;;;;;;17.92;9.15;;;;;;;14.55;64.43;102321.16;5036425;28;20464;-76
2023/04/09 11:03:03;;;;;;;19.65;10.55;;;;;;;14.77;66.67;102327.41;5037859;28;20341;-77
2023/04/09 11:05:37;;;;;;;20.95;10.95;;;;;;;14.66;66.16;102324.19;5037924;28;20421;-76
2023/04/09 11:08:11;;;;;;;18.80;10.18;;;;;;;14.82;64.30;102320.44;5038894;28;20021;-83
2023/04/09 11:10:41;;;;;;;19.63;10.13;;;;;;;14.66;63.52;102316.13;5038890;28;20025;-78